createdAt,value
2022-10-09T00:01:32.195Z,100480.69
2022-10-09T00:16:34.096Z,100451.09
2022-10-09T00:31:36.083Z,100437.50
2022-10-09T00:46:56.046Z,100454.41
2022-10-09T01:01:58.193Z,100455.16
2022-10-09T01:17:14.140Z,100457.72
2022-10-09T01:32:21.549Z,100449.16
2022-10-09T01:47:24.022Z,100436.59
2022-10-09T02:02:26.671Z,100433.03
2022-10-09T02:17:35.142Z,100431.34
2022-10-09T02:32:37.285Z,100419.31
2022-10-09T02:47:39.118Z,100408.50
2022-10-09T03:02:41.083Z,100410.22
2022-10-09T03:17:42.950Z,100391.75
2022-10-09T03:32:44.912Z,100378.38
2022-10-09T03:47:46.688Z,100369.28
2022-10-09T04:02:48.937Z,100379.31
2022-10-09T04:17:50.940Z,100363.22
2022-10-09T04:32:52.808Z,100345.00
2022-10-09T04:47:54.613Z,100344.47
2022-10-09T05:02:56.389Z,100349.03
2022-10-09T05:17:58.173Z,100351.16
2022-10-09T05:33:00.240Z,100351.50
2022-10-09T05:48:02.048Z,100328.44
2022-10-09T06:03:04.182Z,100323.66
2022-10-09T06:18:06.125Z,100320.06
2022-10-09T06:33:08.012Z,100325.69
2022-10-09T06:48:09.826Z,100330.69
2022-10-09T07:03:11.647Z,100325.41
2022-10-09T07:18:13.508Z,100320.63
2022-10-09T07:33:15.455Z,100318.25
2022-10-09T07:48:17.222Z,100321.16
2022-10-09T08:03:19.016Z,100313.78
2022-10-09T08:18:20.825Z,100307.44
2022-10-09T08:33:25.241Z,100288.94
2022-10-09T08:48:30.443Z,100272.97
2022-10-09T09:03:59.561Z,100261.59
2022-10-09T09:19:07.273Z,100253.84
2022-10-09T09:34:28.246Z,100248.75
2022-10-09T09:49:30.197Z,100228.00
2022-10-09T10:04:32.782Z,100206.53
2022-10-09T10:19:35.649Z,100199.69
2022-10-09T10:34:45.742Z,100185.66
2022-10-09T10:49:47.610Z,100199.03
2022-10-09T11:05:29.751Z,100182.75
2022-10-09T11:21:04.350Z,100190.25
2022-10-09T11:36:21.708Z,100168.13
2022-10-09T11:51:47.948Z,100169.16
2022-10-09T12:06:57.527Z,100160.16
2022-10-09T12:22:17.480Z,100174.59
2022-10-09T12:37:31.324Z,100182.69
2022-10-09T12:52:33.494Z,100174.38
2022-10-09T13:07:35.481Z,100159.75
2022-10-09T13:22:37.359Z,100151.69
2022-10-09T13:37:41.179Z,100150.66
2022-10-09T13:52:42.944Z,100152.28
2022-10-09T14:07:44.759Z,100143.66
2022-10-09T14:22:46.841Z,100142.84
2022-10-09T14:37:49.443Z,100159.34
2022-10-09T14:52:51.605Z,100172.91
2022-10-09T15:07:53.748Z,100177.94
2022-10-09T15:22:55.528Z,100192.41
2022-10-09T15:37:57.457Z,100191.59
2022-10-09T15:53:00.026Z,100193.34
2022-10-09T16:08:01.842Z,100204.88
2022-10-09T16:23:04.618Z,100217.22
2022-10-09T16:38:06.959Z,100224.97
2022-10-09T16:53:09.198Z,100232.91
2022-10-09T17:08:10.974Z,100230.91
2022-10-09T17:23:12.795Z,100235.81
2022-10-09T17:38:14.679Z,100240.66
2022-10-09T17:53:16.505Z,100236.28
2022-10-09T18:08:19.871Z,100240.94
2022-10-09T18:23:22.805Z,100242.47
2022-10-09T18:38:25.057Z,100245.31
2022-10-09T18:53:27.158Z,100238.44
2022-10-09T19:08:29.036Z,100243.88
2022-10-09T19:23:30.899Z,100242.59
2022-10-09T19:38:33.386Z,100238.34
2022-10-09T19:53:35.859Z,100237.59
2022-10-09T20:08:39.903Z,100213.44
2022-10-09T20:23:43.283Z,100196.00
2022-10-09T20:38:45.245Z,100186.13
2022-10-09T20:53:51.295Z,100179.94
2022-10-09T21:08:53.111Z,100181.91
2022-10-09T21:23:56.682Z,100190.28
2022-10-09T21:38:58.750Z,100203.00
2022-10-09T21:54:00.663Z,100209.41
2022-10-09T22:09:02.484Z,100205.19
2022-10-09T22:24:04.311Z,100212.84
2022-10-09T22:39:07.297Z,100218.44
2022-10-09T22:54:10.617Z,100224.91
2022-10-09T23:09:14.665Z,100211.25
2022-10-09T23:24:17.993Z,100225.31
2022-10-09T23:39:20.147Z,100219.56
2022-10-09T23:54:22.044Z,100212.25
